FDX226 EDDL-EDDF
Flight info
| Callsign | FDX226 |
|---|---|
| Flight time | N/A |
| Altitude | 23000 |
| Route | COL5Z COL T911 ROLIS ROLIS5A |
| Aircraft | B738/M-SDE2E3FGHIRWXY/LB1 |
Departure
| Time | 2026-05-06 18:43 |
|---|---|
| Airport | Düsseldorf Airport (EDDL) |
Arrival
| Time | N/A |
|---|---|
| Airport | Frankfurt Main Airport (EDDF) |
| Time | Latitude | Longitude | Altitude | Speed | Heading |
|---|---|---|---|---|---|
| 2026-05-06 18:22 | 51.28361 | 6.77121 | 129 ft | 0 kts | 142° |
| 2026-05-06 18:33 | 51.28371 | 6.77109 | 129 ft | 2 kts | 142° |
| 2026-05-06 18:33 | 51.28383 | 6.77093 | 128 ft | 2 kts | 146° |
| 2026-05-06 18:34 | 51.28397 | 6.77086 | 128 ft | 2 kts | 177° |
| 2026-05-06 18:34 | 51.28412 | 6.77088 | 128 ft | 2 kts | 201° |
| 2026-05-06 18:34 | 51.28425 | 6.77101 | 127 ft | 2 kts | 226° |
| 2026-05-06 18:34 | 51.28429 | 6.77109 | 127 ft | 1 kts | 237° |
| 2026-05-06 18:35 | 51.28432 | 6.77114 | 127 ft | 0 kts | 233° |
| 2026-05-06 18:38 | 51.28431 | 6.77114 | 127 ft | 0 kts | 233° |
| 2026-05-06 18:38 | 51.28432 | 6.77114 | 127 ft | 0 kts | 233° |
| 2026-05-06 18:39 | 51.28426 | 6.77103 | 127 ft | 6 kts | 233° |
| 2026-05-06 18:39 | 51.28392 | 6.77027 | 128 ft | 8 kts | 234° |
| 2026-05-06 18:39 | 51.28361 | 6.76961 | 128 ft | 7 kts | 234° |
| 2026-05-06 18:40 | 51.28370 | 6.76735 | 125 ft | 12 kts | 312° |
| 2026-05-06 18:40 | 51.28408 | 6.76623 | 125 ft | 11 kts | 260° |
| 2026-05-06 18:40 | 51.28354 | 6.76495 | 123 ft | 17 kts | 233° |
| 2026-05-06 18:40 | 51.28262 | 6.76298 | 121 ft | 29 kts | 232° |
| 2026-05-06 18:41 | 51.28103 | 6.75966 | 116 ft | 42 kts | 233° |
| 2026-05-06 18:41 | 51.27998 | 6.75749 | 118 ft | 10 kts | 232° |
| 2026-05-06 18:41 | 51.27943 | 6.75636 | 121 ft | 21 kts | 233° |
| 2026-05-06 18:41 | 51.27866 | 6.75470 | 122 ft | 12 kts | 233° |
| 2026-05-06 18:42 | 51.27867 | 6.75326 | 122 ft | 15 kts | 320° |
| 2026-05-06 18:42 | 51.27973 | 6.75278 | 120 ft | 19 kts | 13° |
| 2026-05-06 18:42 | 51.28166 | 6.75628 | 120 ft | 79 kts | 53° |
| 2026-05-06 18:42 | 51.28649 | 6.76645 | 123 ft | 149 kts | 52° |
| 2026-05-06 18:43 | 51.29319 | 6.78116 | 649 ft | 167 kts | 51° |
| 2026-05-06 18:43 | 51.30030 | 6.79520 | 1527 ft | 170 kts | 47° |
| 2026-05-06 18:43 | 51.30783 | 6.81001 | 1853 ft | 175 kts | 49° |
| 2026-05-06 18:43 | 51.31525 | 6.82551 | 1609 ft | 173 kts | 50° |
| 2026-05-06 18:44 | 51.32238 | 6.84068 | 1599 ft | 173 kts | 50° |
| 2026-05-06 18:44 | 51.32999 | 6.85678 | 1639 ft | 193 kts | 51° |
| 2026-05-06 18:44 | 51.33852 | 6.87527 | 1663 ft | 216 kts | 52° |
| 2026-05-06 18:44 | 51.34743 | 6.89570 | 1636 ft | 229 kts | 56° |
| 2026-05-06 18:45 | 51.35360 | 6.91930 | 1613 ft | 236 kts | 78° |
| 2026-05-06 18:45 | 51.35294 | 6.94583 | 1658 ft | 240 kts | 96° |
| 2026-05-06 18:45 | 51.34956 | 6.97274 | 1932 ft | 258 kts | 97° |
| 2026-05-06 18:45 | 51.34730 | 6.99084 | 2766 ft | 250 kts | 96° |
| 2026-05-06 18:46 | 51.34334 | 7.02675 | 4013 ft | 250 kts | 95° |
| 2026-05-06 18:46 | 51.34056 | 7.05428 | 4870 ft | 254 kts | 95° |
| 2026-05-06 18:46 | 51.33774 | 7.08194 | 5745 ft | 256 kts | 95° |
| 2026-05-06 18:46 | 51.33488 | 7.10991 | 6560 ft | 260 kts | 95° |
| 2026-05-06 18:47 | 51.33177 | 7.13851 | 7313 ft | 267 kts | 99° |
| 2026-05-06 18:47 | 51.32520 | 7.16685 | 8062 ft | 277 kts | 120° |
| 2026-05-06 18:47 | 51.31113 | 7.18787 | 8802 ft | 286 kts | 151° |
| 2026-05-06 18:47 | 51.29245 | 7.19827 | 9555 ft | 290 kts | 167° |
| 2026-05-06 18:48 | 51.27278 | 7.20475 | 10305 ft | 293 kts | 168° |
| 2026-05-06 18:48 | 51.25278 | 7.21151 | 11085 ft | 295 kts | 167° |
| 2026-05-06 18:48 | 51.23287 | 7.21908 | 11832 ft | 298 kts | 166° |
| 2026-05-06 18:48 | 51.21287 | 7.22736 | 12569 ft | 300 kts | 165° |
| 2026-05-06 18:49 | 51.19254 | 7.23617 | 13314 ft | 302 kts | 165° |
| 2026-05-06 18:49 | 51.17238 | 7.24505 | 13988 ft | 305 kts | 165° |
| 2026-05-06 18:49 | 51.15210 | 7.25399 | 14713 ft | 306 kts | 166° |